sensor_id;sensor_type;location;lat;lon;timestamp;temperature;humidity
32895;DHT22;19251;49.484;8.260;2022-11-15T00:02:23;12.90;31.20
32895;DHT22;19251;49.484;8.260;2022-11-15T00:07:44;12.90;31.20
32895;DHT22;19251;49.484;8.260;2022-11-15T00:13:19;12.90;31.30
32895;DHT22;19251;49.484;8.260;2022-11-15T00:18:40;12.80;31.10
32895;DHT22;19251;49.484;8.260;2022-11-15T00:24:05;12.90;31.30
32895;DHT22;19251;49.484;8.260;2022-11-15T00:29:25;12.90;31.30
32895;DHT22;19251;49.484;8.260;2022-11-15T00:34:46;12.90;31.30
32895;DHT22;19251;49.484;8.260;2022-11-15T00:40:07;12.90;31.30
32895;DHT22;19251;49.484;8.260;2022-11-15T00:45:27;12.90;31.30
32895;DHT22;19251;49.484;8.260;2022-11-15T00:50:49;12.70;31.10
32895;DHT22;19251;49.484;8.260;2022-11-15T00:56:09;12.90;31.30
32895;DHT22;19251;49.484;8.260;2022-11-15T01:01:30;13.00;31.40
32895;DHT22;19251;49.484;8.260;2022-11-15T01:12:11;13.00;31.20
32895;DHT22;19251;49.484;8.260;2022-11-15T01:22:52;12.90;31.10
32895;DHT22;19251;49.484;8.260;2022-11-15T01:28:13;12.90;31.30
32895;DHT22;19251;49.484;8.260;2022-11-15T01:33:36;12.90;31.30
32895;DHT22;19251;49.484;8.260;2022-11-15T01:38:58;12.90;31.30
32895;DHT22;19251;49.484;8.260;2022-11-15T01:44:40;12.90;31.30
32895;DHT22;19251;49.484;8.260;2022-11-15T01:56:26;12.90;31.40
32895;DHT22;19251;49.484;8.260;2022-11-15T02:01:47;12.90;31.40
32895;DHT22;19251;49.484;8.260;2022-11-15T02:07:10;12.90;31.40
32895;DHT22;19251;49.484;8.260;2022-11-15T02:12:31;12.90;31.30
32895;DHT22;19251;49.484;8.260;2022-11-15T02:28:59;12.90;31.30
32895;DHT22;19251;49.484;8.260;2022-11-15T02:45:46;12.90;31.30
32895;DHT22;19251;49.484;8.260;2022-11-15T02:51:09;12.90;31.30
32895;DHT22;19251;49.484;8.260;2022-11-15T03:07:42;12.90;31.30
32895;DHT22;19251;49.484;8.260;2022-11-15T03:18:49;12.80;31.30
32895;DHT22;19251;49.484;8.260;2022-11-15T03:24:14;12.80;31.30
32895;DHT22;19251;49.484;8.260;2022-11-15T03:29:47;12.90;31.40
32895;DHT22;19251;49.484;8.260;2022-11-15T03:35:22;12.90;31.50
32895;DHT22;19251;49.484;8.260;2022-11-15T03:40:49;12.90;31.60
32895;DHT22;19251;49.484;8.260;2022-11-15T03:46:21;12.90;31.40
32895;DHT22;19251;49.484;8.260;2022-11-15T03:51:43;13.00;31.60
32895;DHT22;19251;49.484;8.260;2022-11-15T03:57:04;13.00;31.50
32895;DHT22;19251;49.484;8.260;2022-11-15T04:02:24;13.00;31.50
32895;DHT22;19251;49.484;8.260;2022-11-15T04:07:45;13.00;31.40
32895;DHT22;19251;49.484;8.260;2022-11-15T04:13:05;13.00;31.40
32895;DHT22;19251;49.484;8.260;2022-11-15T04:23:46;13.10;31.50
32895;DHT22;19251;49.484;8.260;2022-11-15T04:29:25;13.10;31.40
32895;DHT22;19251;49.484;8.260;2022-11-15T04:34:54;13.10;31.50
32895;DHT22;19251;49.484;8.260;2022-11-15T04:45:36;13.20;31.60
32895;DHT22;19251;49.484;8.260;2022-11-15T04:50:56;13.20;31.60
32895;DHT22;19251;49.484;8.260;2022-11-15T04:56:17;13.20;31.60
32895;DHT22;19251;49.484;8.260;2022-11-15T05:07:03;13.20;31.60
32895;DHT22;19251;49.484;8.260;2022-11-15T05:12:24;13.20;31.50
32895;DHT22;19251;49.484;8.260;2022-11-15T05:17:44;13.20;31.40
32895;DHT22;19251;49.484;8.260;2022-11-15T05:23:05;13.20;31.30
32895;DHT22;19251;49.484;8.260;2022-11-15T05:33:48;13.20;31.20
32895;DHT22;19251;49.484;8.260;2022-11-15T05:39:08;13.20;31.20
32895;DHT22;19251;49.484;8.260;2022-11-15T05:44:31;13.20;31.20
32895;DHT22;19251;49.484;8.260;2022-11-15T05:49:52;13.20;31.10
32895;DHT22;19251;49.484;8.260;2022-11-15T05:55:14;13.20;31.00
32895;DHT22;19251;49.484;8.260;2022-11-15T06:00:34;13.20;30.80
32895;DHT22;19251;49.484;8.260;2022-11-15T06:05:55;13.20;30.80
32895;DHT22;19251;49.484;8.260;2022-11-15T06:11:16;13.10;30.80
32895;DHT22;19251;49.484;8.260;2022-11-15T06:16:37;13.00;30.80
32895;DHT22;19251;49.484;8.260;2022-11-15T06:22:00;13.00;30.80
32895;DHT22;19251;49.484;8.260;2022-11-15T06:27:20;12.90;30.60
32895;DHT22;19251;49.484;8.260;2022-11-15T06:38:04;12.90;30.70
32895;DHT22;19251;49.484;8.260;2022-11-15T06:48:45;12.80;30.70
32895;DHT22;19251;49.484;8.260;2022-11-15T06:54:06;12.80;30.80
32895;DHT22;19251;49.484;8.260;2022-11-15T06:59:26;12.70;30.80
32895;DHT22;19251;49.484;8.260;2022-11-15T07:04:47;12.70;30.70
32895;DHT22;19251;49.484;8.260;2022-11-15T07:10:08;12.80;30.80
32895;DHT22;19251;49.484;8.260;2022-11-15T07:15:29;12.80;30.80
32895;DHT22;19251;49.484;8.260;2022-11-15T07:20:49;12.80;30.80
32895;DHT22;19251;49.484;8.260;2022-11-15T07:26:10;12.80;30.80
32895;DHT22;19251;49.484;8.260;2022-11-15T07:31:30;12.80;31.20
32895;DHT22;19251;49.484;8.260;2022-11-15T07:36:50;12.90;31.40
32895;DHT22;19251;49.484;8.260;2022-11-15T07:47:50;13.00;31.40
32895;DHT22;19251;49.484;8.260;2022-11-15T07:53:10;13.00;31.30
32895;DHT22;19251;49.484;8.260;2022-11-15T07:58:31;13.10;31.30
32895;DHT22;19251;49.484;8.260;2022-11-15T08:03:51;13.10;31.40
32895;DHT22;19251;49.484;8.260;2022-11-15T08:09:12;13.20;31.40
32895;DHT22;19251;49.484;8.260;2022-11-15T08:14:32;13.20;31.30
32895;DHT22;19251;49.484;8.260;2022-11-15T08:19:52;13.30;31.40
32895;DHT22;19251;49.484;8.260;2022-11-15T08:30:36;13.40;31.40
32895;DHT22;19251;49.484;8.260;2022-11-15T08:35:58;13.40;31.30
32895;DHT22;19251;49.484;8.260;2022-11-15T08:41:29;13.50;31.20
32895;DHT22;19251;49.484;8.260;2022-11-15T08:46:50;13.50;31.30
32895;DHT22;19251;49.484;8.260;2022-11-15T08:52:10;13.60;31.40
32895;DHT22;19251;49.484;8.260;2022-11-15T08:57:31;13.60;31.50
32895;DHT22;19251;49.484;8.260;2022-11-15T09:02:51;13.70;31.50
32895;DHT22;19251;49.484;8.260;2022-11-15T09:08:12;13.80;31.40
32895;DHT22;19251;49.484;8.260;2022-11-15T09:13:53;13.90;31.40
32895;DHT22;19251;49.484;8.260;2022-11-15T09:19:13;14.00;31.40
32895;DHT22;19251;49.484;8.260;2022-11-15T09:24:35;14.10;31.50
32895;DHT22;19251;49.484;8.260;2022-11-15T09:29:55;14.10;31.40
32895;DHT22;19251;49.484;8.260;2022-11-15T09:35:16;14.20;31.30
32895;DHT22;19251;49.484;8.260;2022-11-15T09:40:37;14.30;31.30
32895;DHT22;19251;49.484;8.260;2022-11-15T09:51:45;14.40;31.20
32895;DHT22;19251;49.484;8.260;2022-11-15T09:56:50;14.50;30.90
32895;DHT22;19251;49.484;8.260;2022-11-15T10:02:03;14.50;30.70
32895;DHT22;19251;49.484;8.260;2022-11-15T10:07:19;14.50;30.60
32895;DHT22;19251;49.484;8.260;2022-11-15T10:12:23;14.60;30.80
32895;DHT22;19251;49.484;8.260;2022-11-15T10:23:01;14.60;30.80
32895;DHT22;19251;49.484;8.260;2022-11-15T10:28:28;14.60;30.60
32895;DHT22;19251;49.484;8.260;2022-11-15T10:44:07;14.70;30.80
32895;DHT22;19251;49.484;8.260;2022-11-15T10:49:18;14.80;31.10
32895;DHT22;19251;49.484;8.260;2022-11-15T10:59:30;15.00;31.20
32895;DHT22;19251;49.484;8.260;2022-11-15T11:04:50;15.10;31.10
32895;DHT22;19251;49.484;8.260;2022-11-15T11:10:21;15.20;31.10
32895;DHT22;19251;49.484;8.260;2022-11-15T11:15:45;15.40;31.40
32895;DHT22;19251;49.484;8.260;2022-11-15T11:21:02;15.50;31.40
32895;DHT22;19251;49.484;8.260;2022-11-15T11:42:04;16.10;30.90
32895;DHT22;19251;49.484;8.260;2022-11-15T11:47:31;16.20;30.20
32895;DHT22;19251;49.484;8.260;2022-11-15T11:52:44;16.30;30.20
32895;DHT22;19251;49.484;8.260;2022-11-15T12:08:53;16.50;30.00
32895;DHT22;19251;49.484;8.260;2022-11-15T12:14:01;16.60;30.50
32895;DHT22;19251;49.484;8.260;2022-11-15T12:19:04;16.70;30.20
32895;DHT22;19251;49.484;8.260;2022-11-15T12:24:25;16.80;29.60
32895;DHT22;19251;49.484;8.260;2022-11-15T12:29:46;16.80;29.30
32895;DHT22;19251;49.484;8.260;2022-11-15T12:34:51;16.80;29.90
32895;DHT22;19251;49.484;8.260;2022-11-15T13:01:07;17.00;28.90
32895;DHT22;19251;49.484;8.260;2022-11-15T13:06:36;17.00;28.90
32895;DHT22;19251;49.484;8.260;2022-11-15T13:11:48;17.00;28.70
32895;DHT22;19251;49.484;8.260;2022-11-15T13:16:58;17.10;28.70
32895;DHT22;19251;49.484;8.260;2022-11-15T13:22:04;17.10;28.60
32895;DHT22;19251;49.484;8.260;2022-11-15T13:27:25;17.10;28.50
32895;DHT22;19251;49.484;8.260;2022-11-15T13:32:27;17.10;28.30
32895;DHT22;19251;49.484;8.260;2022-11-15T13:37:30;17.10;28.30
32895;DHT22;19251;49.484;8.260;2022-11-15T13:42:34;17.00;28.10
32895;DHT22;19251;49.484;8.260;2022-11-15T13:47:36;17.00;28.20
32895;DHT22;19251;49.484;8.260;2022-11-15T13:52:40;16.90;28.00
32895;DHT22;19251;49.484;8.260;2022-11-15T13:57:59;16.90;28.20
32895;DHT22;19251;49.484;8.260;2022-11-15T14:03:22;16.80;28.20
32895;DHT22;19251;49.484;8.260;2022-11-15T14:08:26;16.80;28.70
32895;DHT22;19251;49.484;8.260;2022-11-15T14:13:30;16.80;28.30
32895;DHT22;19251;49.484;8.260;2022-11-15T14:18:58;16.70;28.30
32895;DHT22;19251;49.484;8.260;2022-11-15T14:24:17;16.70;28.20
32895;DHT22;19251;49.484;8.260;2022-11-15T14:29:27;16.70;28.40
32895;DHT22;19251;49.484;8.260;2022-11-15T14:34:32;16.60;28.40
32895;DHT22;19251;49.484;8.260;2022-11-15T14:39:34;16.60;28.30
32895;DHT22;19251;49.484;8.260;2022-11-15T14:44:36;16.50;28.40
32895;DHT22;19251;49.484;8.260;2022-11-15T14:49:38;16.50;28.30
32895;DHT22;19251;49.484;8.260;2022-11-15T14:59:42;16.50;28.40
32895;DHT22;19251;49.484;8.260;2022-11-15T15:04:45;16.40;28.40
32895;DHT22;19251;49.484;8.260;2022-11-15T15:09:47;16.40;28.40
32895;DHT22;19251;49.484;8.260;2022-11-15T15:14:50;16.40;28.40
32895;DHT22;19251;49.484;8.260;2022-11-15T15:19:52;16.40;28.50
32895;DHT22;19251;49.484;8.260;2022-11-15T15:24:54;16.30;28.50
32895;DHT22;19251;49.484;8.260;2022-11-15T15:29:56;16.20;28.50
32895;DHT22;19251;49.484;8.260;2022-11-15T15:34:58;16.20;28.60
32895;DHT22;19251;49.484;8.260;2022-11-15T15:40:01;16.20;28.60
32895;DHT22;19251;49.484;8.260;2022-11-15T15:45:03;16.10;28.80
32895;DHT22;19251;49.484;8.260;2022-11-15T15:50:32;16.10;28.70
32895;DHT22;19251;49.484;8.260;2022-11-15T15:55:35;16.00;28.60
32895;DHT22;19251;49.484;8.260;2022-11-15T16:00:37;16.00;28.70
32895;DHT22;19251;49.484;8.260;2022-11-15T16:05:39;15.90;28.60
32895;DHT22;19251;49.484;8.260;2022-11-15T16:10:42;15.90;28.70
32895;DHT22;19251;49.484;8.260;2022-11-15T16:15:44;15.80;28.80
32895;DHT22;19251;49.484;8.260;2022-11-15T16:20:49;15.70;28.90
32895;DHT22;19251;49.484;8.260;2022-11-15T16:25:54;15.70;29.10
32895;DHT22;19251;49.484;8.260;2022-11-15T16:31:10;15.60;29.10
32895;DHT22;19251;49.484;8.260;2022-11-15T16:36:22;15.60;29.10
32895;DHT22;19251;49.484;8.260;2022-11-15T16:41:31;15.50;29.00
32895;DHT22;19251;49.484;8.260;2022-11-15T16:46:33;15.50;29.10
32895;DHT22;19251;49.484;8.260;2022-11-15T16:51:36;15.10;28.90
32895;DHT22;19251;49.484;8.260;2022-11-15T16:56:39;15.40;29.20
32895;DHT22;19251;49.484;8.260;2022-11-15T17:01:42;15.30;29.20
32895;DHT22;19251;49.484;8.260;2022-11-15T17:06:51;15.30;30.00
32895;DHT22;19251;49.484;8.260;2022-11-15T17:11:54;15.10;29.30
32895;DHT22;19251;49.484;8.260;2022-11-15T17:16:56;15.00;29.20
32895;DHT22;19251;49.484;8.260;2022-11-15T17:21:58;15.00;29.80
32895;DHT22;19251;49.484;8.260;2022-11-15T17:32:02;14.80;29.10
32895;DHT22;19251;49.484;8.260;2022-11-15T17:37:04;14.80;29.30
32895;DHT22;19251;49.484;8.260;2022-11-15T17:42:07;14.70;29.00
32895;DHT22;19251;49.484;8.260;2022-11-15T17:52:11;14.70;29.40
32895;DHT22;19251;49.484;8.260;2022-11-15T17:57:13;14.80;30.30
32895;DHT22;19251;49.484;8.260;2022-11-15T18:02:15;14.60;29.50
32895;DHT22;19251;49.484;8.260;2022-11-15T18:07:18;14.60;30.30
32895;DHT22;19251;49.484;8.260;2022-11-15T18:12:20;14.60;30.40
32895;DHT22;19251;49.484;8.260;2022-11-15T18:17:24;14.60;29.90
32895;DHT22;19251;49.484;8.260;2022-11-15T18:22:26;14.60;30.10
32895;DHT22;19251;49.484;8.260;2022-11-15T18:32:33;14.60;30.00
32895;DHT22;19251;49.484;8.260;2022-11-15T18:37:36;14.70;30.20
32895;DHT22;19251;49.484;8.260;2022-11-15T18:42:39;14.70;30.30
32895;DHT22;19251;49.484;8.260;2022-11-15T18:52:43;14.70;30.10
32895;DHT22;19251;49.484;8.260;2022-11-15T18:57:45;14.70;30.20
32895;DHT22;19251;49.484;8.260;2022-11-15T19:02:48;14.80;30.30
32895;DHT22;19251;49.484;8.260;2022-11-15T19:07:50;14.40;30.80
32895;DHT22;19251;49.484;8.260;2022-11-15T19:12:53;14.70;30.50
32895;DHT22;19251;49.484;8.260;2022-11-15T19:22:58;14.80;30.70
32895;DHT22;19251;49.484;8.260;2022-11-15T19:28:00;14.70;31.40
32895;DHT22;19251;49.484;8.260;2022-11-15T19:33:02;14.70;30.80
32895;DHT22;19251;49.484;8.260;2022-11-15T19:38:05;14.70;31.60
32895;DHT22;19251;49.484;8.260;2022-11-15T19:43:07;14.70;31.10
32895;DHT22;19251;49.484;8.260;2022-11-15T19:48:09;14.70;31.80
32895;DHT22;19251;49.484;8.260;2022-11-15T19:53:11;14.70;31.10
32895;DHT22;19251;49.484;8.260;2022-11-15T19:58:13;14.70;32.00
32895;DHT22;19251;49.484;8.260;2022-11-15T20:03:16;14.70;31.30
32895;DHT22;19251;49.484;8.260;2022-11-15T20:08:18;14.70;31.30
32895;DHT22;19251;49.484;8.260;2022-11-15T20:18:24;14.70;31.40
32895;DHT22;19251;49.484;8.260;2022-11-15T20:23:26;14.70;32.20
32895;DHT22;19251;49.484;8.260;2022-11-15T20:28:28;14.70;31.50
32895;DHT22;19251;49.484;8.260;2022-11-15T20:33:31;14.70;31.50
32895;DHT22;19251;49.484;8.260;2022-11-15T20:38:33;14.70;31.60
32895;DHT22;19251;49.484;8.260;2022-11-15T20:43:36;14.70;31.50
32895;DHT22;19251;49.484;8.260;2022-11-15T20:48:38;14.80;31.60
32895;DHT22;19251;49.484;8.260;2022-11-15T20:53:41;14.70;31.60
32895;DHT22;19251;49.484;8.260;2022-11-15T20:58:44;14.70;31.60
32895;DHT22;19251;49.484;8.260;2022-11-15T21:03:47;14.70;31.60
32895;DHT22;19251;49.484;8.260;2022-11-15T21:08:50;14.70;31.70
32895;DHT22;19251;49.484;8.260;2022-11-15T21:14:25;14.70;31.70
32895;DHT22;19251;49.484;8.260;2022-11-15T21:19:27;14.70;31.90
32895;DHT22;19251;49.484;8.260;2022-11-15T21:24:37;14.70;31.90
32895;DHT22;19251;49.484;8.260;2022-11-15T21:29:40;14.70;31.90
32895;DHT22;19251;49.484;8.260;2022-11-15T21:34:46;14.70;31.90
32895;DHT22;19251;49.484;8.260;2022-11-15T21:39:48;14.70;32.00
32895;DHT22;19251;49.484;8.260;2022-11-15T21:44:50;14.70;32.00
32895;DHT22;19251;49.484;8.260;2022-11-15T21:49:52;14.70;32.10
32895;DHT22;19251;49.484;8.260;2022-11-15T21:54:55;14.70;32.20
32895;DHT22;19251;49.484;8.260;2022-11-15T21:59:57;14.70;32.30
32895;DHT22;19251;49.484;8.260;2022-11-15T22:05:18;14.70;32.40
32895;DHT22;19251;49.484;8.260;2022-11-15T22:10:20;14.70;32.40
32895;DHT22;19251;49.484;8.260;2022-11-15T22:15:22;14.70;32.40
32895;DHT22;19251;49.484;8.260;2022-11-15T22:20:25;14.60;32.30
32895;DHT22;19251;49.484;8.260;2022-11-15T22:25:45;14.70;32.50
32895;DHT22;19251;49.484;8.260;2022-11-15T22:30:50;14.70;32.50
32895;DHT22;19251;49.484;8.260;2022-11-15T22:35:53;14.70;32.50
32895;DHT22;19251;49.484;8.260;2022-11-15T22:40:55;14.70;32.40
32895;DHT22;19251;49.484;8.260;2022-11-15T22:45:59;14.70;32.60
32895;DHT22;19251;49.484;8.260;2022-11-15T22:51:02;14.70;32.50
32895;DHT22;19251;49.484;8.260;2022-11-15T22:56:05;14.60;32.60
32895;DHT22;19251;49.484;8.260;2022-11-15T23:01:19;14.60;32.60
32895;DHT22;19251;49.484;8.260;2022-11-15T23:06:21;14.60;32.70
32895;DHT22;19251;49.484;8.260;2022-11-15T23:11:24;14.60;32.80
32895;DHT22;19251;49.484;8.260;2022-11-15T23:16:44;14.50;32.80
32895;DHT22;19251;49.484;8.260;2022-11-15T23:21:47;14.50;32.90
32895;DHT22;19251;49.484;8.260;2022-11-15T23:27:08;14.50;32.90
32895;DHT22;19251;49.484;8.260;2022-11-15T23:32:10;14.50;33.00
32895;DHT22;19251;49.484;8.260;2022-11-15T23:37:31;14.50;33.00
32895;DHT22;19251;49.484;8.260;2022-11-15T23:52:38;14.50;33.10
32895;DHT22;19251;49.484;8.260;2022-11-15T23:57:41;14.50;33.10
